createdAt,value
2023-05-04T00:00:48.705Z,12.10
2023-05-04T00:03:17.165Z,12.10
2023-05-04T00:05:45.551Z,12.10
2023-05-04T00:08:13.859Z,12.10
2023-05-04T00:10:43.494Z,12.10
2023-05-04T00:13:11.995Z,12.10
2023-05-04T00:15:40.334Z,12.00
2023-05-04T00:18:08.675Z,12.00
2023-05-04T00:20:37.029Z,12.00
2023-05-04T00:23:05.343Z,12.00
2023-05-04T00:25:33.699Z,12.00
2023-05-04T00:28:03.393Z,11.90
2023-05-04T00:30:31.674Z,11.90
2023-05-04T00:33:00.044Z,11.90
2023-05-04T00:35:29.832Z,11.90
2023-05-04T00:37:58.136Z,11.80
2023-05-04T00:40:26.684Z,11.80
2023-05-04T00:42:54.998Z,11.80
2023-05-04T00:45:24.766Z,11.70
2023-05-04T00:47:53.204Z,11.70
2023-05-04T00:50:21.724Z,11.70
2023-05-04T00:52:51.605Z,11.70
2023-05-04T00:55:21.086Z,11.60
2023-05-04T00:57:51.835Z,11.60
2023-05-04T01:00:20.293Z,11.60
2023-05-04T01:02:51.162Z,11.60
2023-05-04T01:05:19.731Z,11.50
2023-05-04T01:07:57.279Z,11.50
2023-05-04T01:10:32.072Z,11.50
2023-05-04T01:13:05.255Z,11.50
2023-05-04T01:15:33.680Z,11.50
2023-05-04T01:18:03.396Z,11.50
2023-05-04T01:20:32.270Z,11.50
2023-05-04T01:23:02.419Z,11.50
2023-05-04T01:25:35.250Z,11.50
2023-05-04T01:28:09.363Z,11.40
2023-05-04T01:30:40.728Z,11.40
2023-05-04T01:33:10.097Z,11.40
2023-05-04T01:35:39.190Z,11.40
2023-05-04T01:38:09.122Z,11.40
2023-05-04T01:40:37.680Z,11.30
2023-05-04T01:43:06.030Z,11.30
2023-05-04T01:45:34.372Z,11.40
2023-05-04T01:48:02.699Z,11.40
2023-05-04T01:50:31.059Z,11.30
2023-05-04T01:52:59.364Z,11.30
2023-05-04T01:55:29.107Z,11.30
2023-05-04T01:57:57.441Z,11.20
2023-05-04T02:00:25.938Z,11.10
2023-05-04T02:02:54.379Z,11.10
2023-05-04T02:05:22.813Z,11.10
2023-05-04T02:07:51.155Z,11.10
2023-05-04T02:10:19.684Z,11.10
2023-05-04T02:12:50.601Z,11.10
2023-05-04T02:15:19.243Z,11.10
2023-05-04T02:17:48.373Z,11.10
2023-05-04T02:20:16.792Z,11.10
2023-05-04T02:22:47.506Z,11.10
2023-05-04T02:25:15.971Z,11.10
2023-05-04T02:27:44.348Z,11.00
2023-05-04T02:30:15.277Z,11.00
2023-05-04T02:32:43.587Z,11.00
2023-05-04T02:35:12.994Z,10.90
2023-05-04T02:37:41.309Z,10.90
2023-05-04T02:40:10.575Z,10.80
2023-05-04T02:42:39.015Z,10.80
2023-05-04T02:45:09.989Z,10.80
2023-05-04T02:47:40.146Z,10.80
2023-05-04T02:50:09.441Z,10.80
2023-05-04T02:52:37.835Z,10.80
2023-05-04T02:55:06.992Z,10.80
2023-05-04T02:57:35.396Z,10.80
2023-05-04T03:00:04.042Z,10.80
2023-05-04T03:02:32.714Z,10.90
2023-05-04T03:05:02.905Z,10.90
2023-05-04T03:07:31.506Z,10.90
2023-05-04T03:09:59.811Z,10.90
2023-05-04T03:12:28.316Z,10.90
2023-05-04T03:14:56.941Z,10.80
2023-05-04T03:17:25.343Z,10.80
2023-05-04T03:19:55.263Z,10.80
2023-05-04T03:22:25.487Z,10.80
2023-05-04T03:24:54.356Z,10.70
2023-05-04T03:27:22.820Z,10.70
2023-05-04T03:29:51.251Z,10.60
2023-05-04T03:32:20.680Z,10.60
2023-05-04T03:34:49.064Z,10.60
2023-05-04T03:37:18.376Z,10.60
2023-05-04T03:39:48.088Z,10.60
2023-05-04T03:42:16.729Z,10.60
2023-05-04T03:44:45.039Z,10.60
2023-05-04T03:47:13.603Z,10.50
2023-05-04T03:49:41.951Z,10.50
2023-05-04T03:52:10.251Z,10.50
2023-05-04T03:54:39.590Z,10.50
2023-05-04T03:57:09.272Z,10.50
2023-05-04T03:59:38.559Z,10.50
2023-05-04T04:02:08.084Z,10.50
2023-05-04T04:04:37.280Z,10.50
2023-05-04T04:07:05.742Z,10.50
2023-05-04T04:09:34.094Z,10.50
2023-05-04T04:12:02.451Z,10.50
2023-05-04T04:14:32.147Z,10.50
2023-05-04T04:17:00.450Z,10.50
2023-05-04T04:19:28.758Z,10.50
2023-05-04T04:21:59.013Z,10.60
2023-05-04T04:24:27.403Z,10.60
2023-05-04T04:26:55.751Z,10.60
2023-05-04T04:29:24.089Z,10.70
2023-05-04T04:31:53.832Z,10.70
2023-05-04T04:34:22.361Z,10.80
2023-05-04T04:36:51.361Z,10.90
2023-05-04T04:39:19.664Z,11.00
2023-05-04T04:41:47.935Z,11.00
2023-05-04T04:44:16.319Z,11.10
2023-05-04T04:46:45.738Z,11.20
2023-05-04T04:49:17.847Z,11.20
2023-05-04T04:51:46.200Z,11.30
2023-05-04T04:54:14.456Z,11.30
2023-05-04T04:56:42.845Z,11.40
2023-05-04T04:59:11.677Z,11.40
2023-05-04T05:01:40.072Z,11.50
2023-05-04T05:04:08.533Z,11.60
2023-05-04T05:06:38.490Z,11.70
2023-05-04T05:09:06.930Z,11.90
2023-05-04T05:11:35.360Z,12.00
2023-05-04T05:14:03.775Z,12.20
2023-05-04T05:16:32.200Z,12.40
2023-05-04T05:19:00.597Z,14.10
2023-05-04T05:21:28.931Z,17.10
2023-05-04T05:23:58.625Z,19.70
2023-05-04T05:26:27.348Z,21.80
2023-05-04T05:28:55.744Z,23.50
2023-05-04T05:31:24.249Z,24.80
2023-05-04T05:33:52.588Z,25.70
2023-05-04T05:36:21.495Z,26.80
2023-05-04T05:38:50.452Z,27.50
2023-05-04T05:41:20.975Z,28.00
2023-05-04T05:43:49.368Z,28.60
2023-05-04T05:46:18.473Z,28.90
2023-05-04T05:48:46.864Z,29.30
2023-05-04T05:51:15.240Z,29.50
2023-05-04T05:53:44.959Z,30.30
2023-05-04T05:56:14.850Z,30.30
2023-05-04T05:58:44.554Z,30.50
2023-05-04T06:01:13.313Z,30.40
2023-05-04T06:03:42.235Z,30.10
2023-05-04T06:06:11.111Z,30.80
2023-05-04T06:08:39.805Z,30.60
2023-05-04T06:11:08.278Z,30.90
2023-05-04T06:13:36.600Z,31.90
2023-05-04T06:16:06.581Z,32.50
2023-05-04T06:18:35.016Z,32.70
2023-05-04T06:21:04.108Z,32.90
2023-05-04T06:23:34.711Z,33.30
2023-05-04T06:26:05.989Z,33.10
2023-05-04T06:28:34.609Z,32.90
2023-05-04T06:31:03.697Z,33.20
2023-05-04T06:33:33.423Z,33.50
2023-05-04T06:36:01.964Z,33.50
2023-05-04T06:38:30.315Z,33.70
2023-05-04T06:40:58.706Z,33.90
2023-05-04T06:43:27.078Z,34.10
2023-05-04T06:45:55.418Z,34.10
2023-05-04T06:48:23.777Z,34.10
2023-05-04T06:50:53.802Z,34.30
2023-05-04T06:53:22.281Z,34.30
2023-05-04T06:55:50.740Z,34.60
2023-05-04T06:58:20.146Z,34.20
2023-05-04T07:00:48.624Z,33.80
2023-05-04T07:03:17.038Z,33.80
2023-05-04T07:05:45.647Z,34.10
2023-05-04T07:08:15.344Z,33.70
2023-05-04T07:10:44.304Z,33.40
2023-05-04T07:13:12.909Z,33.50
2023-05-04T07:15:41.323Z,33.00
2023-05-04T07:18:10.045Z,32.90
2023-05-04T07:20:38.605Z,33.20
2023-05-04T07:23:07.165Z,33.10
2023-05-04T07:25:36.982Z,33.10
2023-05-04T07:28:05.838Z,32.80
2023-05-04T07:30:34.255Z,33.00
2023-05-04T07:33:02.832Z,32.70
2023-05-04T07:35:31.194Z,32.50
2023-05-04T07:37:59.566Z,32.70
2023-05-04T07:40:28.093Z,32.60
2023-05-04T07:42:57.969Z,32.50
2023-05-04T07:45:26.820Z,32.60
2023-05-04T07:47:55.155Z,32.40
2023-05-04T07:50:23.541Z,32.40
2023-05-04T07:52:52.289Z,32.70
2023-05-04T07:55:20.932Z,32.50
2023-05-04T07:57:49.311Z,32.20
2023-05-04T08:00:20.666Z,32.20
2023-05-04T08:02:49.671Z,31.90
2023-05-04T08:05:18.592Z,31.30
2023-05-04T08:07:47.170Z,30.80
2023-05-04T08:10:15.544Z,29.90
2023-05-04T08:12:44.122Z,28.80
2023-05-04T08:15:13.203Z,28.10
2023-05-04T08:17:42.990Z,27.30
2023-05-04T08:20:11.793Z,26.80
2023-05-04T08:22:40.363Z,26.70
2023-05-04T08:25:09.782Z,26.40
2023-05-04T08:27:38.110Z,25.60
2023-05-04T08:30:07.796Z,25.00
2023-05-04T08:32:36.454Z,25.10
2023-05-04T08:35:06.885Z,25.20
2023-05-04T08:37:35.526Z,25.40
2023-05-04T08:40:04.781Z,25.10
2023-05-04T08:42:34.760Z,25.00
2023-05-04T08:45:03.408Z,25.10
2023-05-04T08:47:31.958Z,25.10
2023-05-04T08:50:01.130Z,25.10
2023-05-04T08:52:32.260Z,25.10
2023-05-04T08:55:00.937Z,25.20
2023-05-04T08:57:29.591Z,25.10
2023-05-04T09:00:01.426Z,25.00
2023-05-04T09:02:31.396Z,25.00
2023-05-04T09:04:59.924Z,25.20
2023-05-04T09:07:28.371Z,25.10
2023-05-04T09:09:59.209Z,24.90
2023-05-04T09:12:28.340Z,25.00
2023-05-04T09:14:56.700Z,25.00
2023-05-04T09:17:27.783Z,25.00
2023-05-04T09:20:00.504Z,24.90
2023-05-04T09:22:29.953Z,24.70
2023-05-04T09:25:09.254Z,24.80
2023-05-04T09:27:54.677Z,24.70
2023-05-04T09:30:23.434Z,24.70
2023-05-04T09:32:53.015Z,24.70
2023-05-04T09:35:33.833Z,24.50
2023-05-04T09:38:02.986Z,23.90
2023-05-04T09:40:34.008Z,23.90
2023-05-04T09:43:03.061Z,23.90
2023-05-04T09:45:41.326Z,24.10
2023-05-04T09:48:20.632Z,24.00
2023-05-04T09:50:53.709Z,23.90
2023-05-04T09:53:25.059Z,23.90
2023-05-04T09:56:10.014Z,23.80
2023-05-04T09:58:40.960Z,23.90
2023-05-04T10:01:09.690Z,24.00
2023-05-04T10:03:38.675Z,24.00
2023-05-04T10:06:09.145Z,23.90
2023-05-04T10:08:38.328Z,23.90
2023-05-04T10:11:09.193Z,23.90
2023-05-04T10:13:37.638Z,23.80
2023-05-04T10:16:24.340Z,23.70
2023-05-04T10:19:12.516Z,23.60
2023-05-04T10:21:53.046Z,23.60
2023-05-04T10:24:45.916Z,23.40
2023-05-04T10:27:18.284Z,23.40
2023-05-04T10:29:50.546Z,23.30
2023-05-04T10:32:20.420Z,23.20
2023-05-04T10:34:49.314Z,23.20
2023-05-04T10:37:19.064Z,23.00
2023-05-04T10:39:54.797Z,23.00
2023-05-04T10:42:24.516Z,23.10
2023-05-04T10:44:55.106Z,23.00
2023-05-04T10:47:32.574Z,22.90
2023-05-04T10:50:06.133Z,22.80
2023-05-04T10:52:46.129Z,22.50
2023-05-04T10:55:15.410Z,22.10
2023-05-04T10:57:52.948Z,21.80
2023-05-04T11:00:22.040Z,22.00
2023-05-04T11:02:50.906Z,22.20
2023-05-04T11:05:20.495Z,22.40
2023-05-04T11:07:53.190Z,22.60
2023-05-04T11:10:23.545Z,22.60
2023-05-04T11:12:53.764Z,22.30
2023-05-04T11:15:22.944Z,22.10
2023-05-04T11:17:52.503Z,22.20
2023-05-04T11:20:22.486Z,22.10
2023-05-04T11:22:51.188Z,22.20
2023-05-04T11:25:28.261Z,22.30
2023-05-04T11:27:58.748Z,22.50
2023-05-04T11:30:34.635Z,22.60
2023-05-04T11:33:05.384Z,22.60
2023-05-04T11:35:34.272Z,22.30
2023-05-04T11:38:02.744Z,22.10
2023-05-04T11:40:31.217Z,21.90
2023-05-04T11:43:01.475Z,21.90
2023-05-04T11:45:32.502Z,22.00
2023-05-04T11:48:01.637Z,22.30
2023-05-04T11:50:31.590Z,22.30
2023-05-04T11:53:09.129Z,22.20
2023-05-04T11:55:38.379Z,22.30
2023-05-04T11:58:09.878Z,22.10
2023-05-04T12:00:40.129Z,22.00
2023-05-04T12:03:10.150Z,22.00
2023-05-04T12:05:38.889Z,22.10
2023-05-04T12:08:08.871Z,22.30
2023-05-04T12:10:37.286Z,22.20
2023-05-04T12:13:18.443Z,22.00
2023-05-04T12:15:47.404Z,21.90
2023-05-04T12:18:29.723Z,21.90
2023-05-04T12:21:08.249Z,21.80
2023-05-04T12:23:36.816Z,21.80
2023-05-04T12:26:06.042Z,22.00
2023-05-04T12:28:36.763Z,22.20
2023-05-04T12:31:06.978Z,22.30
2023-05-04T12:33:36.329Z,22.30
2023-05-04T12:36:06.193Z,22.40
2023-05-04T12:38:35.160Z,22.40
2023-05-04T12:41:04.587Z,22.50
2023-05-04T12:43:33.324Z,22.20
2023-05-04T12:46:03.310Z,22.10
2023-05-04T12:48:33.074Z,22.20
2023-05-04T12:51:04.005Z,22.50
2023-05-04T12:53:33.093Z,22.70
2023-05-04T12:56:06.193Z,22.70
2023-05-04T12:58:34.555Z,22.80
2023-05-04T13:01:04.836Z,22.80
2023-05-04T13:03:33.481Z,22.80
2023-05-04T13:06:01.936Z,22.80
2023-05-04T13:08:30.411Z,22.90
2023-05-04T13:10:58.841Z,22.90
2023-05-04T13:13:29.097Z,22.60
2023-05-04T13:15:57.586Z,22.50
2023-05-04T13:18:28.178Z,22.60
2023-05-04T13:20:56.674Z,22.50
2023-05-04T13:23:26.427Z,22.40
2023-05-04T13:25:54.803Z,22.50
2023-05-04T13:28:23.154Z,22.60
2023-05-04T13:30:51.457Z,22.60
2023-05-04T13:33:29.482Z,22.60
2023-05-04T13:36:02.189Z,22.70
2023-05-04T13:38:30.564Z,22.80
2023-05-04T13:40:59.094Z,22.90
2023-05-04T13:43:27.423Z,22.80
2023-05-04T13:45:57.139Z,22.90
2023-05-04T13:48:26.838Z,22.60
2023-05-04T13:50:55.418Z,22.40
2023-05-04T13:53:25.309Z,22.30
2023-05-04T13:55:53.660Z,22.30
2023-05-04T13:58:22.058Z,22.40
2023-05-04T14:00:50.487Z,22.60
2023-05-04T14:03:19.028Z,22.80
2023-05-04T14:05:47.409Z,22.70
2023-05-04T14:08:15.928Z,22.70
2023-05-04T14:10:45.705Z,22.60
2023-05-04T14:13:14.827Z,22.70
2023-05-04T14:15:43.293Z,22.90
2023-05-04T14:18:11.960Z,22.80
2023-05-04T14:20:40.306Z,22.80
2023-05-04T14:23:08.682Z,22.70
2023-05-04T14:25:37.065Z,22.70
2023-05-04T14:28:06.855Z,22.60
2023-05-04T14:30:35.217Z,22.50
2023-05-04T14:33:04.142Z,22.50
2023-05-04T14:35:34.964Z,22.50
2023-05-04T14:38:03.794Z,22.50
2023-05-04T14:40:32.907Z,22.50
2023-05-04T14:43:01.773Z,22.50
2023-05-04T14:45:31.594Z,22.70
2023-05-04T14:47:59.978Z,22.90
2023-05-04T14:50:28.800Z,23.00
2023-05-04T14:52:57.291Z,22.90
2023-05-04T14:55:26.150Z,22.80
2023-05-04T14:57:54.518Z,22.80
2023-05-04T15:00:23.234Z,22.80
2023-05-04T15:02:53.305Z,22.90
2023-05-04T15:05:21.795Z,22.90
2023-05-04T15:07:50.122Z,22.90
2023-05-04T15:10:19.170Z,22.80
2023-05-04T15:12:47.692Z,22.80
2023-05-04T15:15:16.198Z,22.60
2023-05-04T15:17:44.687Z,22.70
2023-05-04T15:20:15.506Z,22.60
2023-05-04T15:22:47.218Z,22.70
2023-05-04T15:25:15.578Z,22.90
2023-05-04T15:27:44.965Z,22.80
2023-05-04T15:30:14.140Z,22.60
2023-05-04T15:32:42.605Z,22.70
2023-05-04T15:35:11.112Z,22.80
2023-05-04T15:37:40.912Z,22.80
2023-05-04T15:40:10.827Z,22.80
2023-05-04T15:42:39.615Z,22.70
2023-05-04T15:45:10.513Z,22.60
2023-05-04T15:47:39.253Z,22.70
2023-05-04T15:50:08.640Z,22.70
2023-05-04T15:52:37.210Z,22.70
2023-05-04T15:55:23.370Z,22.60
2023-05-04T15:57:52.764Z,22.50
2023-05-04T16:00:22.194Z,22.40
2023-05-04T16:02:50.678Z,22.50
2023-05-04T16:05:19.146Z,22.40
2023-05-04T16:07:47.607Z,22.40
2023-05-04T16:10:17.485Z,22.40
2023-05-04T16:12:45.872Z,22.40
2023-05-04T16:15:14.489Z,22.20
2023-05-04T16:17:42.940Z,22.30
2023-05-04T16:20:12.173Z,22.20
2023-05-04T16:22:40.517Z,22.20
2023-05-04T16:25:11.197Z,22.20
2023-05-04T16:27:41.404Z,22.20
2023-05-04T16:30:11.131Z,22.20
2023-05-04T16:32:39.603Z,22.10
2023-05-04T16:35:09.111Z,22.00
2023-05-04T16:37:38.009Z,22.00
2023-05-04T16:40:14.745Z,22.00
2023-05-04T16:42:45.011Z,22.00
2023-05-04T16:45:14.648Z,22.00
2023-05-04T16:47:43.438Z,22.00
2023-05-04T16:50:13.047Z,22.00
2023-05-04T16:52:41.703Z,22.00
2023-05-04T16:55:12.374Z,21.80
2023-05-04T16:57:41.197Z,21.80
2023-05-04T17:00:13.494Z,21.90
2023-05-04T17:02:42.426Z,21.90
2023-05-04T17:05:11.380Z,21.90
2023-05-04T17:07:43.121Z,21.90
2023-05-04T17:10:12.486Z,21.90
2023-05-04T17:12:40.889Z,21.90
2023-05-04T17:15:11.661Z,21.80
2023-05-04T17:17:40.381Z,21.70
2023-05-04T17:20:14.727Z,21.70
2023-05-04T17:22:43.838Z,21.60
2023-05-04T17:25:12.781Z,21.60
2023-05-04T17:27:41.360Z,21.50
2023-05-04T17:30:12.820Z,21.50
2023-05-04T17:32:41.225Z,21.50
2023-05-04T17:35:23.497Z,21.40
2023-05-04T17:37:56.793Z,21.40
2023-05-04T17:40:27.162Z,21.40
2023-05-04T17:42:55.730Z,21.30
2023-05-04T17:45:25.578Z,21.20
2023-05-04T17:47:54.128Z,21.20
2023-05-04T17:50:23.348Z,21.10
2023-05-04T17:52:55.687Z,21.00
2023-05-04T17:55:25.418Z,21.00
2023-05-04T17:57:54.709Z,20.90
2023-05-04T18:00:23.378Z,21.00
2023-05-04T18:02:53.152Z,20.90
2023-05-04T18:05:21.498Z,20.80
2023-05-04T18:07:49.819Z,20.70
2023-05-04T18:10:18.162Z,20.50
2023-05-04T18:12:46.551Z,20.40
2023-05-04T18:15:16.452Z,20.30
2023-05-04T18:17:44.799Z,20.20
2023-05-04T18:20:14.602Z,20.20
2023-05-04T18:22:42.940Z,20.10
2023-05-04T18:25:11.632Z,20.00
2023-05-04T18:27:40.048Z,19.90
2023-05-04T18:30:10.214Z,19.80
2023-05-04T18:32:38.930Z,19.70
2023-05-04T18:35:08.388Z,19.60
2023-05-04T18:37:38.052Z,19.50
2023-05-04T18:40:08.197Z,19.40
2023-05-04T18:42:36.782Z,19.40
2023-05-04T18:45:05.677Z,19.30
2023-05-04T18:47:34.073Z,19.10
2023-05-04T18:50:02.449Z,19.00
2023-05-04T18:52:30.868Z,19.00
2023-05-04T18:55:00.602Z,18.90
2023-05-04T18:57:30.114Z,18.80
2023-05-04T18:59:58.548Z,18.70
2023-05-04T19:02:29.899Z,18.60
2023-05-04T19:04:58.497Z,18.50
2023-05-04T19:07:27.181Z,18.50
2023-05-04T19:09:55.629Z,18.40
2023-05-04T19:12:25.517Z,18.40
2023-05-04T19:14:55.253Z,18.50
2023-05-04T19:17:23.670Z,18.40
2023-05-04T19:19:52.093Z,18.40
2023-05-04T19:22:20.631Z,18.40
2023-05-04T19:24:51.528Z,18.40
2023-05-04T19:27:19.792Z,18.30
2023-05-04T19:29:49.769Z,18.30
2023-05-04T19:32:24.358Z,18.20
2023-05-04T19:34:53.645Z,18.10
2023-05-04T19:37:22.056Z,18.00
2023-05-04T19:39:50.684Z,17.90
2023-05-04T19:42:19.100Z,17.80
2023-05-04T19:44:47.453Z,17.80
2023-05-04T19:47:18.374Z,17.70
2023-05-04T19:49:47.624Z,17.60
2023-05-04T19:52:17.416Z,17.50
2023-05-04T19:54:48.597Z,17.40
2023-05-04T19:57:16.961Z,17.40
2023-05-04T19:59:47.071Z,17.40
2023-05-04T20:02:17.436Z,17.30
2023-05-04T20:04:45.985Z,17.20
2023-05-04T20:07:14.370Z,17.10
2023-05-04T20:09:42.794Z,17.10
2023-05-04T20:12:12.387Z,17.00
2023-05-04T20:14:41.261Z,16.90
2023-05-04T20:17:09.734Z,16.90
2023-05-04T20:19:40.838Z,16.90
2023-05-04T20:22:09.249Z,16.90
2023-05-04T20:24:37.760Z,16.80
2023-05-04T20:27:06.800Z,16.80
2023-05-04T20:29:35.433Z,16.70
2023-05-04T20:32:05.321Z,16.70
2023-05-04T20:34:34.523Z,16.70
2023-05-04T20:37:04.492Z,16.70
2023-05-04T20:39:33.298Z,16.60
2023-05-04T20:42:01.658Z,16.60
2023-05-04T20:44:30.368Z,16.60
2023-05-04T20:46:58.747Z,16.50
2023-05-04T20:49:27.092Z,16.40
2023-05-04T20:51:55.458Z,16.30
2023-05-04T20:54:25.400Z,16.20
2023-05-04T20:56:53.889Z,16.20
2023-05-04T20:59:22.147Z,16.10
2023-05-04T21:01:50.785Z,16.10
2023-05-04T21:04:19.239Z,16.20
2023-05-04T21:06:48.322Z,16.10
2023-05-04T21:09:17.034Z,16.10
2023-05-04T21:11:46.790Z,16.20
2023-05-04T21:14:15.365Z,16.20
2023-05-04T21:16:43.701Z,16.20
2023-05-04T21:19:12.002Z,16.20
2023-05-04T21:21:41.470Z,16.20
2023-05-04T21:24:13.372Z,16.10
2023-05-04T21:26:42.355Z,16.00
2023-05-04T21:29:14.945Z,16.00
2023-05-04T21:31:43.457Z,16.00
2023-05-04T21:34:11.843Z,16.10
2023-05-04T21:36:40.525Z,16.00
2023-05-04T21:39:09.328Z,16.00
2023-05-04T21:41:37.843Z,16.00
2023-05-04T21:44:06.356Z,16.00
2023-05-04T21:46:36.396Z,15.90
2023-05-04T21:49:04.860Z,15.80
2023-05-04T21:51:33.550Z,15.80
2023-05-04T21:54:02.275Z,15.70
2023-05-04T21:56:31.546Z,15.80
2023-05-04T21:59:00.366Z,15.70
2023-05-04T22:01:29.301Z,15.70
2023-05-04T22:03:59.486Z,15.60
2023-05-04T22:06:28.337Z,15.50
2023-05-04T22:08:57.028Z,15.50
2023-05-04T22:11:25.935Z,15.50
2023-05-04T22:13:55.305Z,15.40
2023-05-04T22:16:24.586Z,15.40
2023-05-04T22:18:53.333Z,15.40
2023-05-04T22:21:23.512Z,15.30
2023-05-04T22:23:52.180Z,15.30
2023-05-04T22:26:20.836Z,15.30
2023-05-04T22:28:49.564Z,15.20
2023-05-04T22:31:18.365Z,15.10
2023-05-04T22:33:47.213Z,15.10
2023-05-04T22:36:15.911Z,15.00
2023-05-04T22:38:46.358Z,15.00
2023-05-04T22:41:15.257Z,15.00
2023-05-04T22:43:43.948Z,15.00
2023-05-04T22:46:16.939Z,14.90
2023-05-04T22:48:47.479Z,14.90
2023-05-04T22:51:16.321Z,14.90
2023-05-04T22:53:46.466Z,14.80
2023-05-04T22:56:15.432Z,14.80
2023-05-04T22:58:46.114Z,14.80
2023-05-04T23:01:14.864Z,14.80
2023-05-04T23:03:44.858Z,14.70
2023-05-04T23:06:13.794Z,14.70
2023-05-04T23:08:42.479Z,14.60
2023-05-04T23:11:12.949Z,14.50
2023-05-04T23:13:41.762Z,14.40
2023-05-04T23:16:10.530Z,14.40
2023-05-04T23:18:39.251Z,14.30
2023-05-04T23:21:07.896Z,14.30
2023-05-04T23:23:36.712Z,14.30
2023-05-04T23:26:05.731Z,14.30
2023-05-04T23:28:35.906Z,14.30
2023-05-04T23:31:04.710Z,14.30
2023-05-04T23:33:33.456Z,14.20
2023-05-04T23:36:02.205Z,14.20
2023-05-04T23:38:30.970Z,14.10
2023-05-04T23:41:02.431Z,14.10
2023-05-04T23:43:31.974Z,14.10
2023-05-04T23:46:02.912Z,14.00
2023-05-04T23:48:32.928Z,14.00
2023-05-04T23:51:04.069Z,13.90
2023-05-04T23:53:33.734Z,14.00
2023-05-04T23:56:04.601Z,14.00
2023-05-04T23:58:34.465Z,14.00
